sensor_id;sensor_type;location;lat;lon;timestamp;pressure;altitude;pressure_sealevel;temperature;humidity
61757;BME280;57225;61.460;24.060;2022-09-21T00:01:27;100699.22;;;5.35;100.00
61757;BME280;57225;61.460;24.060;2022-09-21T00:04:11;100697.53;;;5.31;100.00
61757;BME280;57225;61.460;24.060;2022-09-21T00:06:56;100695.91;;;5.30;100.00
61757;BME280;57225;61.460;24.060;2022-09-21T00:09:40;100692.41;;;5.33;100.00
61757;BME280;57225;61.460;24.060;2022-09-21T00:12:25;100695.38;;;5.40;100.00
61757;BME280;57225;61.460;24.060;2022-09-21T00:15:10;100696.53;;;5.39;100.00
61757;BME280;57225;61.460;24.060;2022-09-21T00:17:56;100694.91;;;5.38;100.00
61757;BME280;57225;61.460;24.060;2022-09-21T00:20:41;100686.69;;;5.25;100.00
61757;BME280;57225;61.460;24.060;2022-09-21T00:23:28;100707.38;;;5.32;100.00
61757;BME280;57225;61.460;24.060;2022-09-21T00:26:18;100706.69;;;5.35;100.00
61757;BME280;57225;61.460;24.060;2022-09-21T00:29:03;100713.84;;;5.36;100.00
61757;BME280;57225;61.460;24.060;2022-09-21T00:31:50;100715.44;;;5.37;100.00
61757;BME280;57225;61.460;24.060;2022-09-21T00:34:34;100722.41;;;5.31;100.00
61757;BME280;57225;61.460;24.060;2022-09-21T00:37:19;100723.28;;;5.35;100.00
61757;BME280;57225;61.460;24.060;2022-09-21T00:40:03;100717.56;;;5.28;100.00
61757;BME280;57225;61.460;24.060;2022-09-21T00:42:48;100726.03;;;5.35;100.00
61757;BME280;57225;61.460;24.060;2022-09-21T00:45:32;100723.97;;;5.32;100.00
61757;BME280;57225;61.460;24.060;2022-09-21T00:48:17;100728.00;;;5.34;100.00
61757;BME280;57225;61.460;24.060;2022-09-21T00:51:05;100733.06;;;5.32;100.00
61757;BME280;57225;61.460;24.060;2022-09-21T00:53:54;100732.84;;;5.37;100.00
61757;BME280;57225;61.460;24.060;2022-09-21T00:56:43;100732.94;;;5.41;100.00
61757;BME280;57225;61.460;24.060;2022-09-21T00:59:30;100743.72;;;5.46;100.00
61757;BME280;57225;61.460;24.060;2022-09-21T01:02:16;100747.22;;;5.43;100.00
61757;BME280;57225;61.460;24.060;2022-09-21T01:05:02;100753.53;;;5.43;100.00
61757;BME280;57225;61.460;24.060;2022-09-21T01:07:46;100749.84;;;5.39;100.00
61757;BME280;57225;61.460;24.060;2022-09-21T01:10:43;100754.16;;;5.37;100.00
61757;BME280;57225;61.460;24.060;2022-09-21T01:31:51;100755.72;;;5.38;100.00
61757;BME280;57225;61.460;24.060;2022-09-21T01:35:18;100761.63;;;5.36;100.00
61757;BME280;57225;61.460;24.060;2022-09-21T01:38:13;100770.22;;;5.47;100.00
61757;BME280;57225;61.460;24.060;2022-09-21T01:41:03;100758.47;;;5.50;100.00
61757;BME280;57225;61.460;24.060;2022-09-21T01:43:55;100765.38;;;5.44;100.00
61757;BME280;57225;61.460;24.060;2022-09-21T01:46:41;100770.47;;;5.42;100.00
61757;BME280;57225;61.460;24.060;2022-09-21T01:49:31;100769.41;;;5.46;100.00
61757;BME280;57225;61.460;24.060;2022-09-21T01:52:25;100776.91;;;5.46;100.00
61757;BME280;57225;61.460;24.060;2022-09-21T01:55:23;100770.00;;;5.40;100.00
61757;BME280;57225;61.460;24.060;2022-09-21T02:01:01;100777.16;;;5.41;100.00
61757;BME280;57225;61.460;24.060;2022-09-21T02:03:58;100775.06;;;5.38;100.00
61757;BME280;57225;61.460;24.060;2022-09-21T02:06:46;100781.97;;;5.44;100.00
61757;BME280;57225;61.460;24.060;2022-09-21T02:09:33;100777.84;;;5.38;100.00
61757;BME280;57225;61.460;24.060;2022-09-21T02:12:18;100789.34;;;5.40;100.00
61757;BME280;57225;61.460;24.060;2022-09-21T02:15:03;100772.91;;;5.31;100.00
61757;BME280;57225;61.460;24.060;2022-09-21T02:18:01;100788.41;;;5.48;100.00
61757;BME280;57225;61.460;24.060;2022-09-21T02:20:54;100779.06;;;5.52;100.00
61757;BME280;57225;61.460;24.060;2022-09-21T02:24:06;100792.06;;;5.52;100.00
61757;BME280;57225;61.460;24.060;2022-09-21T02:33:00;100780.38;;;5.43;100.00
61757;BME280;57225;61.460;24.060;2022-09-21T02:35:57;100784.03;;;5.47;100.00
61757;BME280;57225;61.460;24.060;2022-09-21T02:38:52;100789.81;;;5.42;100.00
61757;BME280;57225;61.460;24.060;2022-09-21T02:44:51;100792.25;;;5.43;100.00
61757;BME280;57225;61.460;24.060;2022-09-21T02:47:46;100789.47;;;5.43;100.00
61757;BME280;57225;61.460;24.060;2022-09-21T02:50:43;100788.22;;;5.41;100.00
61757;BME280;57225;61.460;24.060;2022-09-21T02:53:30;100797.09;;;5.34;100.00
61757;BME280;57225;61.460;24.060;2022-09-21T02:56:16;100786.91;;;5.22;100.00
61757;BME280;57225;61.460;24.060;2022-09-21T02:59:02;100794.69;;;5.33;100.00
61757;BME280;57225;61.460;24.060;2022-09-21T03:01:48;100794.03;;;5.23;100.00
61757;BME280;57225;61.460;24.060;2022-09-21T03:04:32;100806.81;;;5.28;100.00
61757;BME280;57225;61.460;24.060;2022-09-21T03:07:17;100806.72;;;5.24;100.00
61757;BME280;57225;61.460;24.060;2022-09-21T03:10:02;100820.91;;;5.39;100.00
61757;BME280;57225;61.460;24.060;2022-09-21T03:12:47;100822.31;;;5.33;100.00
61757;BME280;57225;61.460;24.060;2022-09-21T03:15:32;100822.19;;;5.41;100.00
61757;BME280;57225;61.460;24.060;2022-09-21T03:18:16;100825.22;;;5.36;100.00
61757;BME280;57225;61.460;24.060;2022-09-21T03:21:02;100823.38;;;5.28;100.00
61757;BME280;57225;61.460;24.060;2022-09-21T03:23:46;100833.38;;;5.33;100.00
61757;BME280;57225;61.460;24.060;2022-09-21T03:26:30;100836.59;;;5.35;100.00
61757;BME280;57225;61.460;24.060;2022-09-21T03:29:15;100840.78;;;5.29;100.00
61757;BME280;57225;61.460;24.060;2022-09-21T03:32:01;100831.22;;;5.26;100.00
61757;BME280;57225;61.460;24.060;2022-09-21T03:34:46;100838.69;;;5.25;100.00
61757;BME280;57225;61.460;24.060;2022-09-21T03:37:31;100847.78;;;5.26;100.00
61757;BME280;57225;61.460;24.060;2022-09-21T03:40:16;100850.69;;;5.30;100.00
61757;BME280;57225;61.460;24.060;2022-09-21T03:43:00;100846.31;;;5.29;100.00
61757;BME280;57225;61.460;24.060;2022-09-21T03:45:44;100847.91;;;5.30;100.00
61757;BME280;57225;61.460;24.060;2022-09-21T03:48:31;100860.59;;;5.31;100.00
61757;BME280;57225;61.460;24.060;2022-09-21T03:51:15;100862.53;;;5.30;100.00
61757;BME280;57225;61.460;24.060;2022-09-21T03:53:59;100854.34;;;5.34;100.00
61757;BME280;57225;61.460;24.060;2022-09-21T03:56:44;100863.56;;;5.25;100.00
61757;BME280;57225;61.460;24.060;2022-09-21T03:59:28;100855.75;;;5.28;100.00
61757;BME280;57225;61.460;24.060;2022-09-21T04:02:13;100866.13;;;5.31;100.00
61757;BME280;57225;61.460;24.060;2022-09-21T04:04:58;100868.75;;;5.27;100.00
61757;BME280;57225;61.460;24.060;2022-09-21T04:07:43;100872.66;;;5.26;100.00
61757;BME280;57225;61.460;24.060;2022-09-21T04:10:31;100873.13;;;5.28;100.00
61757;BME280;57225;61.460;24.060;2022-09-21T04:13:18;100880.72;;;5.31;100.00
61757;BME280;57225;61.460;24.060;2022-09-21T04:16:02;100877.50;;;5.29;100.00
61757;BME280;57225;61.460;24.060;2022-09-21T04:18:46;100885.47;;;5.31;100.00
61757;BME280;57225;61.460;24.060;2022-09-21T04:21:33;100880.72;;;5.31;100.00
61757;BME280;57225;61.460;24.060;2022-09-21T04:24:20;100886.34;;;5.35;100.00
61757;BME280;57225;61.460;24.060;2022-09-21T04:27:04;100891.41;;;5.33;100.00
61757;BME280;57225;61.460;24.060;2022-09-21T04:29:49;100891.53;;;5.36;100.00
61757;BME280;57225;61.460;24.060;2022-09-21T04:32:33;100899.94;;;5.40;100.00
61757;BME280;57225;61.460;24.060;2022-09-21T04:35:18;100894.06;;;5.41;100.00
61757;BME280;57225;61.460;24.060;2022-09-21T04:38:02;100903.72;;;5.47;100.00
61757;BME280;57225;61.460;24.060;2022-09-21T04:40:54;100905.81;;;5.38;100.00
61757;BME280;57225;61.460;24.060;2022-09-21T04:43:46;100903.50;;;5.40;100.00
61757;BME280;57225;61.460;24.060;2022-09-21T04:46:30;100895.81;;;5.34;100.00
61757;BME280;57225;61.460;24.060;2022-09-21T04:49:15;100906.81;;;5.46;100.00
61757;BME280;57225;61.460;24.060;2022-09-21T04:51:59;100909.59;;;5.46;100.00
61757;BME280;57225;61.460;24.060;2022-09-21T04:54:43;100907.06;;;5.41;100.00
61757;BME280;57225;61.460;24.060;2022-09-21T04:57:28;100910.41;;;5.46;100.00
61757;BME280;57225;61.460;24.060;2022-09-21T05:00:12;100916.84;;;5.50;100.00
61757;BME280;57225;61.460;24.060;2022-09-21T05:02:57;100921.44;;;5.58;100.00
61757;BME280;57225;61.460;24.060;2022-09-21T05:05:48;100922.34;;;5.62;100.00
61757;BME280;57225;61.460;24.060;2022-09-21T05:08:33;100924.41;;;5.65;100.00
61757;BME280;57225;61.460;24.060;2022-09-21T05:11:36;100924.97;;;5.71;100.00
61757;BME280;57225;61.460;24.060;2022-09-21T05:14:22;100926.91;;;5.71;100.00
61757;BME280;57225;61.460;24.060;2022-09-21T05:17:06;100928.78;;;5.66;100.00
61757;BME280;57225;61.460;24.060;2022-09-21T05:19:51;100930.84;;;5.70;100.00
61757;BME280;57225;61.460;24.060;2022-09-21T05:22:38;100924.06;;;5.67;100.00
61757;BME280;57225;61.460;24.060;2022-09-21T05:25:23;100925.69;;;5.68;100.00
61757;BME280;57225;61.460;24.060;2022-09-21T05:28:07;100936.84;;;5.72;100.00
61757;BME280;57225;61.460;24.060;2022-09-21T05:34:23;100940.50;;;5.76;100.00
61757;BME280;57225;61.460;24.060;2022-09-21T05:37:30;100943.59;;;5.86;100.00
61757;BME280;57225;61.460;24.060;2022-09-21T05:40:19;100944.66;;;5.94;99.89
61757;BME280;57225;61.460;24.060;2022-09-21T05:43:03;100945.25;;;5.87;100.00
61757;BME280;57225;61.460;24.060;2022-09-21T05:45:58;100948.09;;;5.91;100.00
61757;BME280;57225;61.460;24.060;2022-09-21T05:48:57;100944.03;;;6.00;100.00
61757;BME280;57225;61.460;24.060;2022-09-21T05:57:45;100960.34;;;6.18;99.13
61757;BME280;57225;61.460;24.060;2022-09-21T06:00:45;100957.44;;;6.14;98.47
61757;BME280;57225;61.460;24.060;2022-09-21T06:03:31;100959.63;;;6.21;99.01
61757;BME280;57225;61.460;24.060;2022-09-21T06:06:19;100965.16;;;6.21;97.17
61757;BME280;57225;61.460;24.060;2022-09-21T06:09:04;100967.47;;;6.19;97.44
61757;BME280;57225;61.460;24.060;2022-09-21T06:11:49;100971.59;;;6.25;97.28
61757;BME280;57225;61.460;24.060;2022-09-21T06:14:33;100972.75;;;6.24;97.25
61757;BME280;57225;61.460;24.060;2022-09-21T06:17:18;100971.41;;;6.18;97.33
61757;BME280;57225;61.460;24.060;2022-09-21T06:20:02;100975.53;;;6.24;98.17
61757;BME280;57225;61.460;24.060;2022-09-21T06:22:50;100970.88;;;6.28;97.01
61757;BME280;57225;61.460;24.060;2022-09-21T06:25:34;100969.59;;;6.37;95.64
61757;BME280;57225;61.460;24.060;2022-09-21T06:28:19;100977.78;;;6.34;97.09
61757;BME280;57225;61.460;24.060;2022-09-21T06:31:04;100982.16;;;6.35;95.99
61757;BME280;57225;61.460;24.060;2022-09-21T06:33:49;100983.06;;;6.39;97.63
61757;BME280;57225;61.460;24.060;2022-09-21T06:36:34;100981.91;;;6.40;96.55
61757;BME280;57225;61.460;24.060;2022-09-21T06:39:18;100985.28;;;6.33;96.64
61757;BME280;57225;61.460;24.060;2022-09-21T06:42:03;100985.13;;;6.42;96.37
61757;BME280;57225;61.460;24.060;2022-09-21T06:44:48;100992.81;;;6.49;96.06
61757;BME280;57225;61.460;24.060;2022-09-21T06:47:32;100990.88;;;6.49;95.15
61757;BME280;57225;61.460;24.060;2022-09-21T06:50:16;100986.19;;;6.37;95.51
61757;BME280;57225;61.460;24.060;2022-09-21T06:53:02;100980.66;;;6.37;96.57
61757;BME280;57225;61.460;24.060;2022-09-21T06:55:46;100995.00;;;6.55;95.49
61757;BME280;57225;61.460;24.060;2022-09-21T06:58:31;100997.94;;;6.62;96.73
61757;BME280;57225;61.460;24.060;2022-09-21T07:01:18;100994.03;;;6.63;94.20
61757;BME280;57225;61.460;24.060;2022-09-21T07:04:02;100995.19;;;6.62;94.84
61757;BME280;57225;61.460;24.060;2022-09-21T07:06:47;101000.81;;;6.66;94.70
61757;BME280;57225;61.460;24.060;2022-09-21T07:09:32;100993.69;;;6.80;94.60
61757;BME280;57225;61.460;24.060;2022-09-21T07:12:17;101003.72;;;7.01;93.09
61757;BME280;57225;61.460;24.060;2022-09-21T07:15:03;101004.59;;;7.05;92.84
61757;BME280;57225;61.460;24.060;2022-09-21T07:17:48;101008.88;;;7.18;91.47
61757;BME280;57225;61.460;24.060;2022-09-21T07:20:32;101010.31;;;7.12;90.52
61757;BME280;57225;61.460;24.060;2022-09-21T07:23:18;101008.16;;;7.21;90.39
61757;BME280;57225;61.460;24.060;2022-09-21T07:26:08;101010.69;;;7.26;89.52
61757;BME280;57225;61.460;24.060;2022-09-21T07:28:52;101010.38;;;7.47;91.32
61757;BME280;57225;61.460;24.060;2022-09-21T07:31:37;101014.56;;;7.56;88.51
61757;BME280;57225;61.460;24.060;2022-09-21T07:34:21;101009.34;;;7.71;87.58
61757;BME280;57225;61.460;24.060;2022-09-21T07:37:05;101013.81;;;7.75;87.73
61757;BME280;57225;61.460;24.060;2022-09-21T07:39:51;101007.91;;;7.77;84.64
61757;BME280;57225;61.460;24.060;2022-09-21T07:42:36;101003.28;;;7.84;85.18
61757;BME280;57225;61.460;24.060;2022-09-21T07:45:20;101009.63;;;8.00;85.68
61757;BME280;57225;61.460;24.060;2022-09-21T07:48:05;101009.25;;;8.02;85.18
61757;BME280;57225;61.460;24.060;2022-09-21T07:50:50;101015.22;;;8.04;83.38
61757;BME280;57225;61.460;24.060;2022-09-21T07:53:35;101012.53;;;8.07;83.52
61757;BME280;57225;61.460;24.060;2022-09-21T07:56:21;101012.03;;;8.21;82.55
61757;BME280;57225;61.460;24.060;2022-09-21T07:59:05;101005.97;;;8.35;80.43
61757;BME280;57225;61.460;24.060;2022-09-21T08:01:50;100997.88;;;8.26;80.03
61757;BME280;57225;61.460;24.060;2022-09-21T08:04:35;101014.25;;;8.51;82.75
61757;BME280;57225;61.460;24.060;2022-09-21T08:07:19;101012.63;;;8.50;81.93
61757;BME280;57225;61.460;24.060;2022-09-21T08:10:04;101022.13;;;8.48;79.99
61757;BME280;57225;61.460;24.060;2022-09-21T08:12:48;101027.44;;;8.76;79.31
61757;BME280;57225;61.460;24.060;2022-09-21T08:15:33;101025.47;;;8.77;76.69
61757;BME280;57225;61.460;24.060;2022-09-21T08:18:17;101022.91;;;8.68;78.11
61757;BME280;57225;61.460;24.060;2022-09-21T08:21:02;101016.88;;;8.63;78.41
61757;BME280;57225;61.460;24.060;2022-09-21T08:23:47;101025.19;;;8.63;78.55
61757;BME280;57225;61.460;24.060;2022-09-21T08:26:32;101024.34;;;8.81;77.80
61757;BME280;57225;61.460;24.060;2022-09-21T08:29:17;101027.03;;;8.97;76.66
61757;BME280;57225;61.460;24.060;2022-09-21T08:32:02;101029.75;;;9.16;77.57
61757;BME280;57225;61.460;24.060;2022-09-21T08:34:46;101037.66;;;9.14;75.69
61757;BME280;57225;61.460;24.060;2022-09-21T08:37:32;101035.41;;;9.23;75.54
61757;BME280;57225;61.460;24.060;2022-09-21T08:40:19;101042.03;;;9.38;78.03
61757;BME280;57225;61.460;24.060;2022-09-21T08:43:10;101033.84;;;9.49;77.76
61757;BME280;57225;61.460;24.060;2022-09-21T08:45:57;101037.94;;;9.55;75.22
61757;BME280;57225;61.460;24.060;2022-09-21T08:48:53;101035.06;;;9.48;73.27
61757;BME280;57225;61.460;24.060;2022-09-21T08:51:46;101039.69;;;9.40;73.23
61757;BME280;57225;61.460;24.060;2022-09-21T08:54:51;101044.47;;;9.40;72.41
61757;BME280;57225;61.460;24.060;2022-09-21T08:57:37;101040.63;;;9.48;74.42
61757;BME280;57225;61.460;24.060;2022-09-21T09:00:22;101043.94;;;9.57;75.38
61757;BME280;57225;61.460;24.060;2022-09-21T09:03:58;101046.94;;;9.71;73.05
61757;BME280;57225;61.460;24.060;2022-09-21T09:09:49;101048.44;;;9.91;75.10
61757;BME280;57225;61.460;24.060;2022-09-21T09:15:52;101050.53;;;9.98;72.62
61757;BME280;57225;61.460;24.060;2022-09-21T09:18:42;101049.06;;;9.81;72.00
61757;BME280;57225;61.460;24.060;2022-09-21T09:21:31;101044.91;;;9.68;72.70
61757;BME280;57225;61.460;24.060;2022-09-21T09:27:35;101058.59;;;10.06;71.69
61757;BME280;57225;61.460;24.060;2022-09-21T09:30:23;101050.34;;;10.14;71.25
61757;BME280;57225;61.460;24.060;2022-09-21T09:33:15;101046.97;;;10.01;70.93
61757;BME280;57225;61.460;24.060;2022-09-21T09:36:10;101055.41;;;10.04;71.49
61757;BME280;57225;61.460;24.060;2022-09-21T09:38:59;101054.84;;;9.95;71.28
61757;BME280;57225;61.460;24.060;2022-09-21T09:47:45;101062.09;;;9.74;73.28
61757;BME280;57225;61.460;24.060;2022-09-21T09:50:39;101062.59;;;9.79;72.93
61757;BME280;57225;61.460;24.060;2022-09-21T09:53:25;101055.28;;;9.71;73.49
61757;BME280;57225;61.460;24.060;2022-09-21T09:56:10;101062.34;;;9.65;72.99
61757;BME280;57225;61.460;24.060;2022-09-21T09:59:02;101042.97;;;9.46;72.41
61757;BME280;57225;61.460;24.060;2022-09-21T10:05:04;101041.75;;;9.20;72.95
61757;BME280;57225;61.460;24.060;2022-09-21T10:07:49;101057.41;;;9.28;73.91
61757;BME280;57225;61.460;24.060;2022-09-21T10:10:40;101053.72;;;9.47;74.69
61757;BME280;57225;61.460;24.060;2022-09-21T10:13:30;101060.31;;;9.62;73.78
61757;BME280;57225;61.460;24.060;2022-09-21T10:16:20;101059.81;;;9.56;73.38
61757;BME280;57225;61.460;24.060;2022-09-21T10:19:04;101060.19;;;9.55;73.03
61757;BME280;57225;61.460;24.060;2022-09-21T10:21:55;101051.53;;;9.60;74.66
61757;BME280;57225;61.460;24.060;2022-09-21T10:24:45;101062.78;;;9.67;74.28
61757;BME280;57225;61.460;24.060;2022-09-21T10:27:34;101063.91;;;9.62;72.59
61757;BME280;57225;61.460;24.060;2022-09-21T10:33:20;101063.78;;;9.55;74.67
61757;BME280;57225;61.460;24.060;2022-09-21T10:36:24;101061.91;;;9.63;75.35
61757;BME280;57225;61.460;24.060;2022-09-21T10:39:31;101072.16;;;9.82;74.88
61757;BME280;57225;61.460;24.060;2022-09-21T10:42:17;101071.91;;;9.67;73.45
61757;BME280;57225;61.460;24.060;2022-09-21T10:45:13;101073.59;;;9.72;74.21
61757;BME280;57225;61.460;24.060;2022-09-21T10:48:07;101067.59;;;9.70;72.33
61757;BME280;57225;61.460;24.060;2022-09-21T10:50:54;101067.75;;;9.54;71.10
61757;BME280;57225;61.460;24.060;2022-09-21T10:53:38;101069.81;;;9.35;73.39
61757;BME280;57225;61.460;24.060;2022-09-21T10:56:23;101070.38;;;9.21;73.58
61757;BME280;57225;61.460;24.060;2022-09-21T10:59:24;101066.16;;;9.31;73.25
61757;BME280;57225;61.460;24.060;2022-09-21T11:05:20;101074.38;;;9.23;74.41
61757;BME280;57225;61.460;24.060;2022-09-21T11:08:14;101064.97;;;9.32;72.59
61757;BME280;57225;61.460;24.060;2022-09-21T11:11:29;101065.75;;;9.28;73.72
61757;BME280;57225;61.460;24.060;2022-09-21T11:14:50;101066.97;;;9.31;74.25
61757;BME280;57225;61.460;24.060;2022-09-21T11:17:58;101064.25;;;9.35;72.95
61757;BME280;57225;61.460;24.060;2022-09-21T11:21:08;101068.44;;;9.48;72.19
61757;BME280;57225;61.460;24.060;2022-09-21T11:24:01;101065.47;;;9.60;71.54
61757;BME280;57225;61.460;24.060;2022-09-21T11:27:05;101071.84;;;9.60;73.51
61757;BME280;57225;61.460;24.060;2022-09-21T11:30:12;101070.97;;;9.56;71.65
61757;BME280;57225;61.460;24.060;2022-09-21T11:33:14;101071.53;;;9.43;71.88
61757;BME280;57225;61.460;24.060;2022-09-21T11:36:41;101065.88;;;9.36;72.31
61757;BME280;57225;61.460;24.060;2022-09-21T11:49:09;101065.53;;;9.41;71.38
61757;BME280;57225;61.460;24.060;2022-09-21T11:52:08;101067.81;;;9.58;72.79
61757;BME280;57225;61.460;24.060;2022-09-21T11:55:14;101060.75;;;9.64;73.02
61757;BME280;57225;61.460;24.060;2022-09-21T11:58:32;101068.84;;;9.73;71.37
61757;BME280;57225;61.460;24.060;2022-09-21T12:01:38;101065.28;;;9.76;71.49
61757;BME280;57225;61.460;24.060;2022-09-21T12:14:06;101075.94;;;9.70;69.63
61757;BME280;57225;61.460;24.060;2022-09-21T12:17:12;101067.06;;;9.61;72.94
61757;BME280;57225;61.460;24.060;2022-09-21T12:26:05;101072.22;;;9.85;69.82
61757;BME280;57225;61.460;24.060;2022-09-21T12:28:55;101062.72;;;9.90;69.74
61757;BME280;57225;61.460;24.060;2022-09-21T12:32:06;101070.72;;;9.91;68.96
61757;BME280;57225;61.460;24.060;2022-09-21T12:34:58;101072.03;;;9.75;69.43
61757;BME280;57225;61.460;24.060;2022-09-21T12:38:00;101076.09;;;9.81;70.19
61757;BME280;57225;61.460;24.060;2022-09-21T12:40:53;101073.28;;;9.77;71.94
61757;BME280;57225;61.460;24.060;2022-09-21T12:47:05;101075.47;;;9.91;71.24
61757;BME280;57225;61.460;24.060;2022-09-21T12:50:00;101075.53;;;9.94;72.73
61757;BME280;57225;61.460;24.060;2022-09-21T12:52:47;101074.34;;;9.95;72.46
61757;BME280;57225;61.460;24.060;2022-09-21T12:55:41;101080.41;;;10.01;71.81
61757;BME280;57225;61.460;24.060;2022-09-21T12:58:46;101075.63;;;10.01;71.89
61757;BME280;57225;61.460;24.060;2022-09-21T13:01:41;101082.81;;;10.02;68.74
61757;BME280;57225;61.460;24.060;2022-09-21T13:07:37;101069.25;;;10.01;72.36
61757;BME280;57225;61.460;24.060;2022-09-21T13:16:23;101070.06;;;10.01;73.00
61757;BME280;57225;61.460;24.060;2022-09-21T13:22:56;101071.22;;;9.74;70.40
61757;BME280;57225;61.460;24.060;2022-09-21T13:25:25;101079.91;;;9.69;70.05
61757;BME280;57225;61.460;24.060;2022-09-21T13:37:25;101068.00;;;9.46;73.89
61757;BME280;57225;61.460;24.060;2022-09-21T13:43:14;101069.25;;;9.48;73.47
61757;BME280;57225;61.460;24.060;2022-09-21T13:45:58;101063.72;;;9.52;73.85
61757;BME280;57225;61.460;24.060;2022-09-21T13:48:43;101064.66;;;9.59;69.96
61757;BME280;57225;61.460;24.060;2022-09-21T13:57:39;101062.59;;;9.56;72.46
61757;BME280;57225;61.460;24.060;2022-09-21T14:00:32;101049.59;;;9.38;72.86
61757;BME280;57225;61.460;24.060;2022-09-21T14:03:32;101067.56;;;9.44;72.51
61757;BME280;57225;61.460;24.060;2022-09-21T14:06:24;101065.66;;;9.48;72.84
61757;BME280;57225;61.460;24.060;2022-09-21T14:09:52;101062.44;;;9.46;73.76
61757;BME280;57225;61.460;24.060;2022-09-21T14:12:40;101063.69;;;9.48;74.51
61757;BME280;57225;61.460;24.060;2022-09-21T14:15:36;101067.69;;;9.51;74.38
61757;BME280;57225;61.460;24.060;2022-09-21T14:18:35;101062.38;;;9.42;75.34
61757;BME280;57225;61.460;24.060;2022-09-21T14:21:21;101061.06;;;9.36;76.60
61757;BME280;57225;61.460;24.060;2022-09-21T14:27:26;101067.72;;;9.28;73.81
61757;BME280;57225;61.460;24.060;2022-09-21T14:30:24;101060.09;;;9.25;73.26
61757;BME280;57225;61.460;24.060;2022-09-21T14:36:32;101062.56;;;9.07;74.03
61757;BME280;57225;61.460;24.060;2022-09-21T14:39:28;101069.91;;;8.96;75.49
61757;BME280;57225;61.460;24.060;2022-09-21T14:42:22;101069.94;;;8.77;77.05
61757;BME280;57225;61.460;24.060;2022-09-21T14:45:14;101063.09;;;8.71;76.88
61757;BME280;57225;61.460;24.060;2022-09-21T14:48:46;101060.66;;;8.69;75.41
61757;BME280;57225;61.460;24.060;2022-09-21T14:57:26;101067.84;;;8.70;76.81
61757;BME280;57225;61.460;24.060;2022-09-21T15:00:23;101065.91;;;8.74;75.55
61757;BME280;57225;61.460;24.060;2022-09-21T15:19:36;101066.72;;;8.36;78.40
61757;BME280;57225;61.460;24.060;2022-09-21T15:22:21;101073.91;;;8.37;78.93
61757;BME280;57225;61.460;24.060;2022-09-21T15:25:11;101064.56;;;8.30;78.99
61757;BME280;57225;61.460;24.060;2022-09-21T15:27:56;101062.44;;;8.23;79.29
61757;BME280;57225;61.460;24.060;2022-09-21T15:30:42;101065.50;;;8.34;78.30
61757;BME280;57225;61.460;24.060;2022-09-21T15:33:29;101069.31;;;8.29;79.18
61757;BME280;57225;61.460;24.060;2022-09-21T15:36:26;101069.25;;;8.26;79.03
61757;BME280;57225;61.460;24.060;2022-09-21T15:39:27;101072.25;;;8.17;79.44
61757;BME280;57225;61.460;24.060;2022-09-21T15:42:19;101072.09;;;8.10;80.03
61757;BME280;57225;61.460;24.060;2022-09-21T15:45:26;101076.94;;;7.97;82.01
61757;BME280;57225;61.460;24.060;2022-09-21T15:48:11;101072.31;;;7.86;82.30
61757;BME280;57225;61.460;24.060;2022-09-21T15:51:05;101080.78;;;7.74;83.16
61757;BME280;57225;61.460;24.060;2022-09-21T15:54:07;101078.91;;;7.62;84.14
61757;BME280;57225;61.460;24.060;2022-09-21T15:56:53;101079.53;;;7.55;85.61
61757;BME280;57225;61.460;24.060;2022-09-21T15:59:42;101079.19;;;7.41;86.57
61757;BME280;57225;61.460;24.060;2022-09-21T16:02:35;101082.22;;;7.36;87.60
61757;BME280;57225;61.460;24.060;2022-09-21T16:05:21;101086.25;;;7.23;88.81
61757;BME280;57225;61.460;24.060;2022-09-21T16:08:18;101081.25;;;7.13;90.21
61757;BME280;57225;61.460;24.060;2022-09-21T16:11:14;101082.75;;;6.95;92.03
61757;BME280;57225;61.460;24.060;2022-09-21T16:14:13;101077.34;;;6.86;92.91
61757;BME280;57225;61.460;24.060;2022-09-21T16:20:13;101077.47;;;6.62;94.28
61757;BME280;57225;61.460;24.060;2022-09-21T16:23:10;101085.03;;;6.49;94.51
61757;BME280;57225;61.460;24.060;2022-09-21T16:25:57;101092.22;;;6.38;94.87
61757;BME280;57225;61.460;24.060;2022-09-21T16:28:44;101087.88;;;6.25;94.88
61757;BME280;57225;61.460;24.060;2022-09-21T16:31:31;101087.09;;;6.12;95.00
61757;BME280;57225;61.460;24.060;2022-09-21T16:34:22;101097.81;;;6.01;95.58
61757;BME280;57225;61.460;24.060;2022-09-21T16:40:09;101100.25;;;5.79;96.42
61757;BME280;57225;61.460;24.060;2022-09-21T16:42:54;101104.16;;;5.65;96.92
61757;BME280;57225;61.460;24.060;2022-09-21T16:45:40;101102.22;;;5.54;97.53
61757;BME280;57225;61.460;24.060;2022-09-21T16:48:24;101101.16;;;5.46;97.85
61757;BME280;57225;61.460;24.060;2022-09-21T16:51:14;101098.50;;;5.38;98.04
61757;BME280;57225;61.460;24.060;2022-09-21T16:53:58;101101.50;;;5.33;98.03
61757;BME280;57225;61.460;24.060;2022-09-21T16:56:43;101098.72;;;5.20;98.23
61757;BME280;57225;61.460;24.060;2022-09-21T16:59:29;101101.34;;;5.05;98.90
61757;BME280;57225;61.460;24.060;2022-09-21T17:02:16;101105.09;;;5.00;99.17
61757;BME280;57225;61.460;24.060;2022-09-21T17:05:01;101100.34;;;4.89;99.24
61757;BME280;57225;61.460;24.060;2022-09-21T17:07:53;101097.09;;;4.74;99.90
61757;BME280;57225;61.460;24.060;2022-09-21T17:10:40;101099.94;;;4.66;100.00
61757;BME280;57225;61.460;24.060;2022-09-21T17:13:25;101100.59;;;4.63;99.99
61757;BME280;57225;61.460;24.060;2022-09-21T17:16:11;101103.09;;;4.56;100.00
61757;BME280;57225;61.460;24.060;2022-09-21T17:18:56;101104.94;;;4.52;100.00
61757;BME280;57225;61.460;24.060;2022-09-21T17:21:40;101103.53;;;4.45;100.00